createdAt,value
2018-03-15T00:00:27.087Z,999.86
2018-03-15T00:01:27.069Z,999.89
2018-03-15T00:02:27.071Z,999.83
2018-03-15T00:03:27.038Z,999.83
2018-03-15T00:04:27.039Z,999.81
2018-03-15T00:05:27.004Z,999.81
2018-03-15T00:06:26.981Z,999.73
2018-03-15T00:07:26.969Z,999.77
2018-03-15T00:08:26.951Z,999.78
2018-03-15T00:09:26.959Z,999.73
2018-03-15T00:10:26.914Z,999.73
2018-03-15T00:11:26.908Z,999.70
2018-03-15T00:12:26.927Z,999.66
2018-03-15T00:13:26.884Z,999.64
2018-03-15T00:14:26.852Z,999.63
2018-03-15T00:15:26.853Z,999.63
2018-03-15T00:16:26.832Z,999.57
2018-03-15T00:17:26.801Z,999.57
2018-03-15T00:18:26.786Z,999.51
2018-03-15T00:19:26.784Z,999.53
2018-03-15T00:20:26.767Z,999.52
2018-03-15T00:21:26.749Z,999.48
2018-03-15T00:22:26.717Z,999.49
2018-03-15T00:23:26.689Z,999.50
2018-03-15T00:24:26.687Z,999.48
2018-03-15T00:25:26.665Z,999.51
2018-03-15T00:26:47.656Z,999.53
2018-03-15T00:27:26.631Z,999.60
2018-03-15T00:28:26.613Z,999.51
2018-03-15T00:29:26.602Z,999.53
2018-03-15T00:30:26.576Z,999.58
2018-03-15T00:31:26.581Z,999.49
2018-03-15T00:32:26.566Z,999.47
2018-03-15T00:33:26.518Z,999.50
2018-03-15T00:34:26.517Z,999.48
2018-03-15T00:35:26.488Z,999.41
2018-03-15T00:36:26.484Z,999.52
2018-03-15T00:37:26.473Z,999.49
2018-03-15T00:38:26.447Z,999.46
2018-03-15T00:39:26.427Z,999.50
2018-03-15T00:40:26.401Z,999.44
2018-03-15T00:41:26.404Z,999.46
2018-03-15T00:42:26.372Z,999.49
2018-03-15T00:43:26.352Z,999.44
2018-03-15T00:44:26.338Z,999.38
2018-03-15T00:45:26.313Z,999.34
2018-03-15T00:46:26.303Z,999.39
2018-03-15T00:47:26.302Z,999.32
2018-03-15T00:48:26.267Z,999.34
2018-03-15T00:49:26.262Z,999.31
2018-03-15T00:50:26.237Z,999.31
2018-03-15T00:51:26.218Z,999.36
2018-03-15T00:52:26.211Z,999.26
2018-03-15T00:53:26.196Z,999.38
2018-03-15T00:54:26.176Z,999.34
2018-03-15T00:55:26.138Z,999.35
2018-03-15T00:56:26.124Z,999.30
2018-03-15T00:57:26.119Z,999.30
2018-03-15T00:58:26.124Z,999.29
2018-03-15T00:59:26.080Z,999.28
2018-03-15T01:00:26.071Z,999.30
2018-03-15T01:01:26.043Z,999.30
2018-03-15T01:02:26.030Z,999.26
2018-03-15T01:03:26.059Z,999.22
2018-03-15T01:04:26.004Z,999.19
2018-03-15T01:05:25.973Z,999.16
2018-03-15T01:06:25.957Z,999.19
2018-03-15T01:07:25.943Z,999.18
2018-03-15T01:08:25.938Z,999.16
2018-03-15T01:09:25.903Z,999.24
2018-03-15T01:10:25.886Z,999.20
2018-03-15T01:11:25.891Z,999.17
2018-03-15T01:12:25.856Z,999.19
2018-03-15T01:13:25.839Z,999.18
2018-03-15T01:14:25.819Z,999.16
2018-03-15T01:15:25.821Z,999.12
2018-03-15T01:16:25.799Z,999.13
2018-03-15T01:17:25.782Z,999.12
2018-03-15T01:18:25.759Z,999.15
2018-03-15T01:19:25.737Z,999.14
2018-03-15T01:20:25.720Z,999.05
2018-03-15T01:21:25.720Z,999.11
2018-03-15T01:22:25.698Z,999.00
2018-03-15T01:23:25.663Z,999.05
2018-03-15T01:24:25.647Z,999.00
2018-03-15T01:25:25.629Z,998.91
2018-03-15T01:26:25.615Z,998.92
2018-03-15T01:27:25.612Z,998.93
2018-03-15T01:28:25.575Z,998.91
2018-03-15T01:29:25.561Z,998.89
2018-03-15T01:30:25.545Z,998.83
2018-03-15T01:31:25.531Z,998.83
2018-03-15T01:32:25.509Z,998.80
2018-03-15T01:33:25.505Z,998.80
2018-03-15T01:34:25.480Z,998.80
2018-03-15T01:35:25.456Z,998.81
2018-03-15T01:36:25.440Z,998.78
2018-03-15T01:37:25.418Z,998.81
2018-03-15T01:38:25.430Z,998.76
2018-03-15T01:39:25.422Z,998.79
2018-03-15T01:40:25.368Z,998.75
2018-03-15T01:41:25.348Z,998.70
2018-03-15T01:42:25.336Z,998.72
2018-03-15T01:43:25.332Z,998.71
2018-03-15T01:44:25.314Z,998.70
2018-03-15T01:45:25.285Z,998.66
2018-03-15T01:46:25.263Z,998.62
2018-03-15T01:47:25.246Z,998.59
2018-03-15T01:48:25.242Z,998.72
2018-03-15T01:49:25.209Z,998.63
2018-03-15T01:50:25.199Z,998.70
2018-03-15T01:51:25.178Z,998.62
2018-03-15T01:52:25.160Z,998.51
2018-03-15T01:53:25.142Z,998.52
2018-03-15T01:54:25.434Z,998.45
2018-03-15T01:55:25.104Z,998.51
2018-03-15T01:56:25.083Z,998.48
2018-03-15T01:57:25.066Z,998.45
2018-03-15T01:58:25.059Z,998.45
2018-03-15T01:59:25.041Z,998.34
2018-03-15T02:00:25.035Z,998.36
2018-03-15T02:01:25.002Z,998.39
2018-03-15T02:02:24.985Z,998.39
2018-03-15T02:03:24.967Z,998.35
2018-03-15T02:04:24.946Z,998.39
2018-03-15T02:05:24.946Z,998.33
2018-03-15T02:06:24.927Z,998.32
2018-03-15T02:07:24.890Z,998.33
2018-03-15T02:08:24.877Z,998.30
2018-03-15T02:09:24.861Z,998.29
2018-03-15T02:10:24.861Z,998.29
2018-03-15T02:11:24.839Z,998.29
2018-03-15T02:12:24.812Z,998.25
2018-03-15T02:13:24.794Z,998.23
2018-03-15T02:14:24.773Z,998.24
2018-03-15T02:15:24.758Z,998.18
2018-03-15T02:16:24.754Z,998.25
2018-03-15T02:17:24.724Z,998.14
2018-03-15T02:18:24.705Z,998.15
2018-03-15T02:19:24.680Z,998.12
2018-03-15T02:20:24.671Z,998.08
2018-03-15T02:21:24.677Z,998.04
2018-03-15T02:22:24.636Z,998.09
2018-03-15T02:23:24.613Z,998.02
2018-03-15T02:24:24.598Z,998.01
2018-03-15T02:25:24.576Z,997.92
2018-03-15T02:26:24.558Z,997.96
2018-03-15T02:27:24.565Z,997.93
2018-03-15T02:28:24.527Z,997.90
2018-03-15T02:29:24.510Z,997.88
2018-03-15T02:30:24.492Z,997.91
2018-03-15T02:31:24.474Z,997.80
2018-03-15T02:32:24.461Z,997.80
2018-03-15T02:33:24.461Z,997.84
2018-03-15T02:34:24.430Z,997.78
2018-03-15T02:35:24.402Z,997.78
2018-03-15T02:36:24.388Z,997.73
2018-03-15T02:37:24.368Z,997.77
2018-03-15T02:38:24.372Z,997.73
2018-03-15T02:39:24.336Z,997.67
2018-03-15T02:40:24.315Z,997.67
2018-03-15T02:41:24.302Z,997.70
2018-03-15T02:42:24.281Z,997.70
2018-03-15T02:43:24.256Z,997.67
2018-03-15T02:44:24.257Z,997.67
2018-03-15T02:45:24.225Z,997.69
2018-03-15T02:46:24.210Z,997.62
2018-03-15T02:47:24.192Z,997.63
2018-03-15T02:48:24.168Z,997.63
2018-03-15T02:49:24.171Z,997.61
2018-03-15T02:50:24.141Z,997.58
2018-03-15T02:51:24.121Z,997.57
2018-03-15T02:52:24.104Z,997.60
2018-03-15T02:53:24.087Z,997.59
2018-03-15T02:54:24.092Z,997.54
2018-03-15T02:55:24.055Z,997.64
2018-03-15T02:56:24.029Z,997.57
2018-03-15T02:57:24.016Z,997.59
2018-03-15T02:58:23.996Z,997.59
2018-03-15T02:59:23.992Z,997.57
2018-03-15T03:00:23.977Z,997.47
2018-03-15T03:01:23.941Z,997.58
2018-03-15T03:02:23.925Z,997.53
2018-03-15T03:03:23.922Z,997.49
2018-03-15T03:04:23.892Z,997.57
2018-03-15T03:05:23.868Z,997.44
2018-03-15T03:06:23.856Z,997.39
2018-03-15T03:07:23.848Z,997.44
2018-03-15T03:08:23.821Z,997.44
2018-03-15T03:09:23.820Z,997.43
2018-03-15T03:10:23.782Z,997.38
2018-03-15T03:11:23.766Z,997.38
2018-03-15T03:12:23.751Z,997.32
2018-03-15T03:13:23.759Z,997.27
2018-03-15T03:14:23.730Z,997.33
2018-03-15T03:15:23.728Z,997.25
2018-03-15T03:16:23.690Z,997.24
2018-03-15T03:17:23.700Z,997.14
2018-03-15T03:18:23.642Z,997.17
2018-03-15T03:19:23.623Z,997.16
2018-03-15T03:20:23.623Z,997.26
2018-03-15T03:21:23.589Z,997.19
2018-03-15T03:22:23.568Z,997.22
2018-03-15T03:23:23.552Z,997.27
2018-03-15T03:24:23.553Z,997.19
2018-03-15T03:25:23.517Z,997.19
2018-03-15T03:26:23.495Z,997.17
2018-03-15T03:27:23.502Z,997.09
2018-03-15T03:28:23.468Z,997.13
2018-03-15T03:29:23.500Z,997.14
2018-03-15T03:30:23.429Z,997.11
2018-03-15T03:31:23.415Z,997.07
2018-03-15T03:32:23.393Z,997.10
2018-03-15T03:33:23.371Z,997.11
2018-03-15T03:34:23.350Z,997.04
2018-03-15T03:35:23.357Z,997.01
2018-03-15T03:36:23.330Z,997.15
2018-03-15T03:37:23.304Z,997.01
2018-03-15T03:38:23.286Z,996.99
2018-03-15T03:39:23.267Z,997.04
2018-03-15T03:40:23.250Z,997.00
2018-03-15T03:41:23.243Z,996.99
2018-03-15T03:42:23.211Z,997.08
2018-03-15T03:43:23.196Z,997.01
2018-03-15T03:44:23.177Z,997.03
2018-03-15T03:45:23.160Z,996.93
2018-03-15T03:46:23.159Z,996.89
2018-03-15T03:47:23.125Z,996.93
2018-03-15T03:48:23.119Z,996.94
2018-03-15T03:49:23.088Z,996.86
2018-03-15T03:50:23.077Z,996.83
2018-03-15T03:51:23.075Z,996.89
2018-03-15T03:52:23.027Z,996.88
2018-03-15T03:53:23.036Z,996.88
2018-03-15T03:54:22.999Z,996.91
2018-03-15T03:55:23.001Z,996.84
2018-03-15T03:56:22.963Z,996.82
2018-03-15T03:57:22.944Z,996.83
2018-03-15T03:58:22.923Z,996.87
2018-03-15T03:59:22.927Z,996.85
2018-03-15T04:00:22.893Z,996.86
2018-03-15T04:01:22.899Z,996.84
2018-03-15T04:02:22.858Z,996.83
2018-03-15T04:03:22.886Z,996.88
2018-03-15T04:04:22.821Z,996.88
2018-03-15T04:05:22.803Z,996.80
2018-03-15T04:06:22.804Z,996.78
2018-03-15T04:07:22.762Z,996.79
2018-03-15T04:08:22.762Z,996.76
2018-03-15T04:09:22.727Z,996.78
2018-03-15T04:10:22.729Z,996.72
2018-03-15T04:11:22.737Z,996.68
2018-03-15T04:12:22.675Z,996.68
2018-03-15T04:13:22.667Z,996.73
2018-03-15T04:14:22.637Z,996.62
2018-03-15T04:15:22.618Z,996.61
2018-03-15T04:16:22.617Z,996.59
2018-03-15T04:17:22.600Z,996.54
2018-03-15T04:18:22.567Z,996.58
2018-03-15T04:19:22.551Z,996.44
2018-03-15T04:20:22.541Z,996.44
2018-03-15T04:21:22.515Z,996.41
2018-03-15T04:22:22.525Z,996.43
2018-03-15T04:23:22.476Z,996.37
2018-03-15T04:24:22.460Z,996.36
2018-03-15T04:25:22.438Z,996.45
2018-03-15T04:26:22.425Z,996.35
2018-03-15T04:27:22.406Z,996.36
2018-03-15T04:28:22.453Z,996.30
2018-03-15T04:29:22.370Z,996.38
2018-03-15T04:30:22.350Z,996.38
2018-03-15T04:31:22.347Z,996.31
2018-03-15T04:32:22.348Z,996.28
2018-03-15T04:33:22.316Z,996.32
2018-03-15T04:34:22.274Z,996.34
2018-03-15T04:35:22.260Z,996.29
2018-03-15T04:36:22.263Z,996.25
2018-03-15T04:37:22.256Z,996.26
2018-03-15T04:38:22.207Z,996.28
2018-03-15T04:39:22.200Z,996.30
2018-03-15T04:40:22.176Z,996.24
2018-03-15T04:41:22.170Z,996.25
2018-03-15T04:42:22.142Z,996.25
2018-03-15T04:43:22.151Z,996.27
2018-03-15T04:44:22.104Z,996.27
2018-03-15T04:45:22.082Z,996.19
2018-03-15T04:46:22.064Z,996.22
2018-03-15T04:47:22.040Z,996.19
2018-03-15T04:48:22.037Z,996.14
2018-03-15T04:49:22.008Z,996.13
2018-03-15T04:50:21.991Z,996.09
2018-03-15T04:51:21.970Z,996.10
2018-03-15T04:52:21.961Z,996.16
2018-03-15T04:53:21.953Z,996.03
2018-03-15T04:54:21.923Z,995.93
2018-03-15T04:55:21.923Z,995.94
2018-03-15T04:56:21.903Z,995.94
2018-03-15T04:57:21.869Z,995.88
2018-03-15T04:58:21.854Z,995.84
2018-03-15T04:59:21.831Z,995.84
2018-03-15T05:00:21.827Z,995.89
2018-03-15T05:01:21.797Z,995.79
2018-03-15T05:02:21.778Z,995.82
2018-03-15T05:03:21.761Z,995.78
2018-03-15T05:04:21.743Z,995.81
2018-03-15T05:05:21.722Z,995.83
2018-03-15T05:06:21.715Z,995.76
2018-03-15T05:07:21.686Z,995.75
2018-03-15T05:08:21.669Z,995.69
2018-03-15T05:09:21.653Z,995.70
2018-03-15T05:10:21.631Z,995.68
2018-03-15T05:11:21.624Z,995.68
2018-03-15T05:12:21.590Z,995.64
2018-03-15T05:13:21.577Z,995.59
2018-03-15T05:14:21.564Z,995.55
2018-03-15T05:15:21.542Z,995.64
2018-03-15T05:16:21.541Z,995.60
2018-03-15T05:17:21.506Z,995.59
2018-03-15T05:18:21.487Z,995.57
2018-03-15T05:19:21.470Z,995.53
2018-03-15T05:20:21.453Z,995.53
2018-03-15T05:21:21.436Z,995.54
2018-03-15T05:22:21.434Z,995.51
2018-03-15T05:23:21.397Z,995.46
2018-03-15T05:24:21.378Z,995.50
2018-03-15T05:25:21.362Z,995.52
2018-03-15T05:26:21.343Z,995.53
2018-03-15T05:27:21.325Z,995.54
2018-03-15T05:28:21.336Z,995.49
2018-03-15T05:29:21.284Z,995.47
2018-03-15T05:30:21.269Z,995.50
2018-03-15T05:31:21.251Z,995.43
2018-03-15T05:32:21.247Z,995.47
2018-03-15T05:33:21.235Z,995.43
2018-03-15T05:34:21.199Z,995.37
2018-03-15T05:35:21.176Z,995.42
2018-03-15T05:36:21.172Z,995.34
2018-03-15T05:37:21.139Z,995.29
2018-03-15T05:38:21.135Z,995.26
2018-03-15T05:39:21.124Z,995.28
2018-03-15T05:40:21.093Z,995.28
2018-03-15T05:41:21.072Z,995.25
2018-03-15T05:42:21.048Z,995.29
2018-03-15T05:43:21.068Z,995.30
2018-03-15T05:44:21.031Z,995.33
2018-03-15T05:45:21.032Z,995.38
2018-03-15T05:46:20.983Z,995.36
2018-03-15T05:47:20.963Z,995.54
2018-03-15T05:48:20.946Z,995.42
2018-03-15T05:49:20.987Z,995.55
2018-03-15T05:50:20.928Z,995.50
2018-03-15T05:51:20.892Z,995.46
2018-03-15T05:52:20.874Z,995.45
2018-03-15T05:53:20.854Z,995.49
2018-03-15T05:54:20.838Z,995.51
2018-03-15T05:55:20.823Z,995.37
2018-03-15T05:56:20.824Z,995.47
2018-03-15T05:57:20.782Z,995.46
2018-03-15T05:58:20.765Z,995.44
2018-03-15T05:59:20.769Z,995.46
2018-03-15T06:00:20.746Z,995.46
2018-03-15T06:01:20.718Z,995.42
2018-03-15T06:02:20.693Z,995.34
2018-03-15T06:03:20.675Z,995.36
2018-03-15T06:04:20.662Z,995.38
2018-03-15T06:05:20.639Z,995.33
2018-03-15T06:06:20.647Z,995.30
2018-03-15T06:07:20.596Z,995.25
2018-03-15T06:08:20.582Z,995.21
2018-03-15T06:09:20.567Z,995.23
2018-03-15T06:10:20.547Z,995.19
2018-03-15T06:11:20.552Z,995.22
2018-03-15T06:12:20.545Z,995.23
2018-03-15T06:13:20.492Z,995.23
2018-03-15T06:14:20.502Z,995.27
2018-03-15T06:15:20.459Z,995.20
2018-03-15T06:16:20.440Z,995.24
2018-03-15T06:17:20.420Z,995.20
2018-03-15T06:18:20.440Z,995.21
2018-03-15T06:19:20.388Z,995.25
2018-03-15T06:20:20.369Z,995.29
2018-03-15T06:21:20.364Z,995.26
2018-03-15T06:22:20.347Z,995.31
2018-03-15T06:23:20.314Z,995.31
2018-03-15T06:24:20.318Z,995.37
2018-03-15T06:25:20.275Z,995.37
2018-03-15T06:26:20.264Z,995.39
2018-03-15T06:27:20.259Z,995.41
2018-03-15T06:28:20.228Z,995.48
2018-03-15T06:29:20.219Z,995.52
2018-03-15T06:30:20.194Z,995.51
2018-03-15T06:31:20.172Z,995.55
2018-03-15T06:32:20.152Z,995.54
2018-03-15T06:33:20.152Z,995.52
2018-03-15T06:34:20.121Z,995.46
2018-03-15T06:35:20.120Z,995.46
2018-03-15T06:36:20.152Z,995.48
2018-03-15T06:37:20.066Z,995.38
2018-03-15T06:38:20.046Z,995.32
2018-03-15T06:39:20.036Z,995.35
2018-03-15T06:40:20.028Z,995.31
2018-03-15T06:41:19.992Z,995.29
2018-03-15T06:42:19.972Z,995.33
2018-03-15T06:43:19.971Z,995.32
2018-03-15T06:44:19.957Z,995.32
2018-03-15T06:45:19.924Z,995.25
2018-03-15T06:46:19.904Z,995.27
2018-03-15T06:47:19.898Z,995.30
2018-03-15T06:48:19.868Z,995.28
2018-03-15T06:49:19.871Z,995.29
2018-03-15T06:50:19.830Z,995.22
2018-03-15T06:51:19.818Z,995.21
2018-03-15T06:52:19.805Z,995.08
2018-03-15T06:53:19.796Z,995.26
2018-03-15T06:54:19.780Z,995.27
2018-03-15T06:55:19.744Z,995.38
2018-03-15T06:56:19.744Z,995.29
2018-03-15T06:57:19.710Z,995.29
2018-03-15T06:58:19.712Z,995.15
2018-03-15T06:59:19.689Z,995.19
2018-03-15T07:00:19.655Z,995.06
2018-03-15T07:01:19.665Z,995.18
2018-03-15T07:02:19.624Z,995.17
2018-03-15T07:03:19.597Z,995.14
2018-03-15T07:04:19.582Z,995.16
2018-03-15T07:05:19.583Z,995.12
2018-03-15T07:06:19.575Z,995.03
2018-03-15T07:07:19.532Z,995.08
2018-03-15T07:08:19.527Z,995.04
2018-03-15T07:09:19.496Z,995.04
2018-03-15T07:10:19.555Z,995.01
2018-03-15T07:11:19.464Z,994.95
2018-03-15T07:12:19.446Z,995.06
2018-03-15T07:13:19.426Z,995.08
2018-03-15T07:14:19.408Z,994.97
2018-03-15T07:15:21.940Z,994.98
2018-03-15T07:16:19.384Z,995.00
2018-03-15T07:17:19.352Z,994.98
2018-03-15T07:18:19.345Z,995.03
2018-03-15T07:19:19.324Z,995.02
2018-03-15T07:20:19.302Z,994.96
2018-03-15T07:21:19.302Z,995.01
2018-03-15T07:22:19.270Z,995.01
2018-03-15T07:23:19.249Z,995.05
2018-03-15T07:24:19.235Z,995.08
2018-03-15T07:25:19.217Z,995.03
2018-03-15T07:26:19.228Z,995.19
2018-03-15T07:27:19.179Z,995.11
2018-03-15T07:28:19.177Z,995.07
2018-03-15T07:29:19.146Z,995.12
2018-03-15T07:30:19.130Z,995.15
2018-03-15T07:31:19.113Z,995.06
2018-03-15T07:32:19.091Z,995.09
2018-03-15T07:33:19.107Z,995.06
2018-03-15T07:34:19.058Z,995.15
2018-03-15T07:35:19.042Z,995.19
2018-03-15T07:36:19.031Z,995.10
2018-03-15T07:37:19.016Z,995.08
2018-03-15T07:38:19.002Z,995.03
2018-03-15T07:39:19.005Z,995.04
2018-03-15T07:40:18.955Z,995.10
2018-03-15T07:41:18.936Z,995.12
2018-03-15T07:42:18.920Z,995.06
2018-03-15T07:43:18.927Z,995.12
2018-03-15T07:44:18.888Z,995.07
2018-03-15T07:45:18.870Z,995.07
2018-03-15T07:46:18.857Z,995.01
2018-03-15T07:47:18.830Z,995.03
2018-03-15T07:48:18.815Z,995.07
2018-03-15T07:49:18.823Z,995.08
2018-03-15T07:50:18.782Z,994.97
2018-03-15T07:51:18.764Z,995.01
2018-03-15T07:52:18.748Z,995.00
2018-03-15T07:53:18.728Z,995.04
2018-03-15T07:54:18.712Z,994.97
2018-03-15T07:55:18.713Z,995.05
2018-03-15T07:56:18.681Z,995.06
2018-03-15T07:57:18.660Z,995.07
2018-03-15T07:58:18.642Z,995.07
2018-03-15T07:59:18.632Z,995.03
2018-03-15T08:00:18.631Z,995.05
2018-03-15T08:01:18.591Z,995.03
2018-03-15T08:02:18.578Z,995.03
2018-03-15T08:03:18.556Z,995.02
2018-03-15T08:04:18.562Z,995.03
2018-03-15T08:05:18.529Z,995.05
2018-03-15T08:06:18.533Z,994.96
2018-03-15T08:07:18.498Z,995.11
2018-03-15T08:08:18.477Z,995.03
2018-03-15T08:09:18.480Z,995.07
2018-03-15T08:10:18.470Z,995.01
2018-03-15T08:11:18.492Z,995.01
2018-03-15T08:12:18.409Z,995.08
2018-03-15T08:13:18.399Z,995.00
2018-03-15T08:14:18.403Z,995.07
2018-03-15T08:15:18.361Z,995.04
2018-03-15T08:16:18.360Z,995.03
2018-03-15T08:17:18.326Z,994.98
2018-03-15T08:18:18.345Z,994.98
2018-03-15T08:19:18.292Z,995.08
2018-03-15T08:20:18.365Z,995.00
2018-03-15T08:21:18.276Z,995.03
2018-03-15T08:22:18.246Z,995.07
2018-03-15T08:23:18.228Z,994.88
2018-03-15T08:24:18.214Z,995.00
2018-03-15T08:25:18.197Z,994.97
2018-03-15T08:26:18.194Z,994.92
2018-03-15T08:27:18.161Z,994.95
2018-03-15T08:28:18.145Z,994.95
2018-03-15T08:29:18.133Z,994.90
2018-03-15T08:30:18.134Z,994.92
2018-03-15T08:31:18.123Z,994.90
2018-03-15T08:32:18.089Z,994.88
2018-03-15T08:33:18.067Z,994.96
2018-03-15T08:34:18.043Z,994.85
2018-03-15T08:35:18.029Z,994.81
2018-03-15T08:36:18.040Z,994.73
2018-03-15T08:37:18.018Z,994.80
2018-03-15T08:38:17.982Z,994.72
2018-03-15T08:39:17.967Z,994.74
2018-03-15T08:40:18.001Z,994.65
2018-03-15T08:41:17.945Z,994.76
2018-03-15T08:42:17.928Z,994.72
2018-03-15T08:43:17.923Z,994.79
2018-03-15T08:44:17.886Z,994.68
2018-03-15T08:45:17.876Z,994.76
2018-03-15T08:46:17.877Z,994.77
2018-03-15T08:47:17.841Z,994.61
2018-03-15T08:48:17.834Z,994.63
2018-03-15T08:49:17.803Z,994.58
2018-03-15T08:50:17.797Z,994.63
2018-03-15T08:51:17.774Z,994.63
2018-03-15T08:52:17.756Z,994.61
2018-03-15T08:53:17.761Z,994.61
2018-03-15T08:54:17.878Z,994.55
2018-03-15T08:55:17.711Z,994.54
2018-03-15T08:56:17.691Z,994.56
2018-03-15T08:57:17.684Z,994.54
2018-03-15T08:58:17.667Z,994.51
2018-03-15T08:59:17.720Z,994.48
2018-03-15T09:00:17.630Z,994.54
2018-03-15T09:01:17.610Z,994.55
2018-03-15T09:02:17.595Z,994.60
2018-03-15T09:03:17.578Z,994.61
2018-03-15T09:04:17.587Z,994.56
2018-03-15T09:05:17.549Z,994.55
2018-03-15T09:06:17.533Z,994.53
2018-03-15T09:07:17.549Z,994.50
2018-03-15T09:08:17.606Z,994.50
2018-03-15T09:09:17.497Z,994.55
2018-03-15T09:10:17.488Z,994.48
2018-03-15T09:11:17.453Z,994.46
2018-03-15T09:12:17.436Z,994.38
2018-03-15T09:13:17.438Z,994.42
2018-03-15T09:14:17.408Z,994.34
2018-03-15T09:15:17.420Z,994.34
2018-03-15T09:16:17.399Z,994.38
2018-03-15T09:17:17.376Z,994.35
2018-03-15T09:18:17.357Z,994.34
2018-03-15T09:19:17.332Z,994.40
2018-03-15T09:20:17.318Z,994.27
2018-03-15T09:21:17.302Z,994.32
2018-03-15T09:22:17.301Z,994.32
2018-03-15T09:23:17.272Z,994.33
2018-03-15T09:24:17.264Z,994.21
2018-03-15T09:25:17.250Z,994.20
2018-03-15T09:26:17.335Z,994.17
2018-03-15T09:27:17.218Z,994.20
2018-03-15T09:28:17.212Z,994.16
2018-03-15T09:29:17.191Z,994.19
2018-03-15T09:30:17.175Z,994.13
2018-03-15T09:31:17.177Z,994.15
2018-03-15T09:32:17.158Z,994.14
2018-03-15T09:33:17.133Z,994.13
2018-03-15T09:34:17.117Z,994.10
2018-03-15T09:35:17.097Z,994.14
2018-03-15T09:36:17.132Z,994.14
2018-03-15T09:37:17.158Z,994.12
2018-03-15T09:38:17.057Z,994.12
2018-03-15T09:39:17.044Z,994.13
2018-03-15T09:40:17.034Z,994.05
2018-03-15T09:41:17.027Z,994.06
2018-03-15T09:42:17.050Z,994.06
2018-03-15T09:43:17.002Z,994.08
2018-03-15T09:44:16.978Z,994.07
2018-03-15T09:45:16.966Z,994.05
2018-03-15T09:46:17.001Z,994.09
2018-03-15T09:47:17.023Z,994.05
2018-03-15T09:48:16.943Z,994.13
2018-03-15T09:49:16.911Z,994.17
2018-03-15T09:50:16.914Z,994.26
2018-03-15T09:51:16.927Z,994.12
2018-03-15T09:52:16.878Z,994.11
2018-03-15T09:53:16.888Z,994.10
2018-03-15T09:54:16.905Z,994.19
2018-03-15T09:55:16.874Z,994.10
2018-03-15T09:56:16.828Z,994.09
2018-03-15T09:57:16.849Z,994.21
2018-03-15T09:58:16.815Z,994.04
2018-03-15T09:59:16.836Z,994.08
2018-03-15T10:00:16.789Z,994.15
2018-03-15T10:01:16.771Z,994.18
2018-03-15T10:02:16.761Z,994.11
2018-03-15T10:03:16.818Z,994.22
2018-03-15T10:04:16.758Z,994.01
2018-03-15T10:05:16.740Z,994.11
2018-03-15T10:06:16.743Z,994.07
2018-03-15T10:07:16.707Z,994.09
2018-03-15T10:08:16.701Z,994.04
2018-03-15T10:09:16.706Z,994.22
2018-03-15T10:10:16.712Z,994.11
2018-03-15T10:11:16.662Z,994.03
2018-03-15T10:12:16.648Z,994.04
2018-03-15T10:13:16.643Z,994.13
2018-03-15T10:14:16.628Z,994.07
2018-03-15T10:15:16.637Z,994.05
2018-03-15T10:16:16.609Z,994.15
2018-03-15T10:17:16.603Z,994.12
2018-03-15T10:18:16.587Z,994.08
2018-03-15T10:19:16.596Z,994.05
2018-03-15T10:20:16.576Z,994.04
2018-03-15T10:21:16.595Z,994.07
2018-03-15T10:22:16.586Z,994.01
2018-03-15T10:23:16.541Z,993.97
2018-03-15T10:24:16.563Z,994.01
2018-03-15T10:25:26.390Z,993.99
2018-03-15T10:26:16.539Z,994.14
2018-03-15T10:27:16.507Z,994.07
2018-03-15T10:28:16.510Z,994.08
2018-03-15T10:29:16.489Z,994.15
2018-03-15T10:30:16.477Z,994.07
2018-03-15T10:31:16.462Z,994.12
2018-03-15T10:32:16.483Z,993.99
2018-03-15T10:33:16.458Z,994.04
2018-03-15T10:34:16.434Z,994.04
2018-03-15T10:35:16.425Z,993.94
2018-03-15T10:36:16.428Z,994.00
2018-03-15T10:37:16.423Z,993.88
2018-03-15T10:38:16.396Z,993.99
2018-03-15T10:39:16.386Z,993.92
2018-03-15T10:40:16.443Z,993.91
2018-03-15T10:41:16.356Z,993.94
2018-03-15T10:42:16.367Z,993.90
2018-03-15T10:43:16.334Z,993.96
2018-03-15T10:44:16.328Z,993.89
2018-03-15T10:45:16.465Z,993.73
2018-03-15T10:46:16.310Z,993.87
2018-03-15T10:47:16.353Z,993.80
2018-03-15T10:48:16.276Z,993.80
2018-03-15T10:49:16.295Z,993.76
2018-03-15T10:50:18.024Z,993.80
2018-03-15T10:51:16.253Z,993.78
2018-03-15T10:52:16.241Z,993.67
2018-03-15T10:53:16.226Z,993.70
2018-03-15T10:54:16.246Z,993.70
2018-03-15T10:55:16.224Z,993.70
2018-03-15T10:56:16.221Z,993.76
2018-03-15T10:57:16.176Z,993.61
2018-03-15T10:58:16.163Z,993.67
2018-03-15T10:59:16.255Z,993.65
2018-03-15T11:00:16.154Z,993.67
2018-03-15T11:01:16.125Z,993.68
2018-03-15T11:02:16.118Z,993.60
2018-03-15T11:03:16.105Z,993.61
2018-03-15T11:04:16.096Z,993.60
2018-03-15T11:05:16.090Z,993.64
2018-03-15T11:06:16.070Z,993.59
2018-03-15T11:07:16.125Z,993.60
2018-03-15T11:08:16.035Z,993.52
2018-03-15T11:09:16.077Z,993.52
2018-03-15T11:10:16.011Z,993.57
2018-03-15T11:11:15.996Z,993.53
2018-03-15T11:12:15.987Z,993.49
2018-03-15T11:13:15.970Z,993.46
2018-03-15T11:14:15.962Z,993.50
2018-03-15T11:15:15.962Z,993.48
2018-03-15T11:16:15.937Z,993.50
2018-03-15T11:17:15.942Z,993.50
2018-03-15T11:18:15.908Z,993.51
2018-03-15T11:19:15.895Z,993.49
2018-03-15T11:20:15.882Z,993.50
2018-03-15T11:21:15.867Z,993.48
2018-03-15T11:22:15.857Z,993.52
2018-03-15T11:23:15.858Z,993.52
2018-03-15T11:24:15.834Z,993.50
2018-03-15T11:25:15.836Z,993.50
2018-03-15T11:26:15.812Z,993.52
2018-03-15T11:27:15.793Z,993.45
2018-03-15T11:28:15.840Z,993.46
2018-03-15T11:29:15.786Z,993.45
2018-03-15T11:30:15.774Z,993.45
2018-03-15T11:31:15.745Z,993.48
2018-03-15T11:32:15.741Z,993.56
2018-03-15T11:33:15.716Z,993.63
2018-03-15T11:34:15.698Z,993.54
2018-03-15T11:35:15.688Z,993.52
2018-03-15T11:36:15.691Z,993.52
2018-03-15T11:37:15.666Z,993.49
2018-03-15T11:38:15.650Z,993.44
2018-03-15T11:39:15.650Z,993.45
2018-03-15T11:40:15.628Z,993.47
2018-03-15T11:41:15.626Z,993.45
2018-03-15T11:42:15.596Z,993.45
2018-03-15T11:43:15.604Z,993.41
2018-03-15T11:44:15.575Z,993.44
2018-03-15T11:45:15.565Z,993.43
2018-03-15T11:46:15.552Z,993.40
2018-03-15T11:47:15.580Z,993.44
2018-03-15T11:48:15.571Z,993.34
2018-03-15T11:49:15.511Z,993.26
2018-03-15T11:50:15.495Z,993.26
2018-03-15T11:51:15.484Z,993.23
2018-03-15T11:52:15.464Z,993.26
2018-03-15T11:53:15.501Z,993.23
2018-03-15T11:54:15.445Z,993.22
2018-03-15T11:55:15.442Z,993.23
2018-03-15T11:56:15.487Z,993.15
2018-03-15T11:57:15.404Z,993.23
2018-03-15T11:58:15.400Z,993.23
2018-03-15T11:59:15.395Z,993.28
2018-03-15T12:00:15.359Z,993.28
2018-03-15T12:01:15.356Z,993.23
2018-03-15T12:02:15.334Z,993.26
2018-03-15T12:03:15.324Z,993.21
2018-03-15T12:04:15.323Z,993.21
2018-03-15T12:05:15.324Z,993.23
2018-03-15T12:06:15.291Z,993.27
2018-03-15T12:07:15.278Z,993.23
2018-03-15T12:08:15.260Z,993.24
2018-03-15T12:09:15.245Z,993.20
2018-03-15T12:10:15.249Z,993.18
2018-03-15T12:11:15.220Z,993.14
2018-03-15T12:12:15.204Z,993.16
2018-03-15T12:13:15.190Z,993.13
2018-03-15T12:14:15.181Z,993.14
2018-03-15T12:15:15.179Z,993.09
2018-03-15T12:16:15.163Z,993.14
2018-03-15T12:17:15.152Z,993.11
2018-03-15T12:18:15.134Z,993.13
2018-03-15T12:19:15.110Z,993.03
2018-03-15T12:20:15.104Z,993.07
2018-03-15T12:21:15.104Z,993.11
2018-03-15T12:22:15.085Z,993.05
2018-03-15T12:23:15.079Z,993.07
2018-03-15T12:24:15.065Z,993.07
2018-03-15T12:25:15.037Z,993.05
2018-03-15T12:26:15.033Z,993.08
2018-03-15T12:27:15.011Z,993.00
2018-03-15T12:28:14.989Z,993.01